sensor_id;sensor_type;location;lat;lon;timestamp;P1;durP1;ratioP1;P2;durP2;ratioP2
77938;SDS011;67136;47.546;21.630;2023-09-12T00:02:23;7.53;;;4.70;;
77938;SDS011;67136;47.546;21.630;2023-09-12T00:05:26;11.63;;;5.43;;
77938;SDS011;67136;47.546;21.630;2023-09-12T00:08:28;13.35;;;4.90;;
77938;SDS011;67136;47.546;21.630;2023-09-12T00:11:31;12.73;;;4.90;;
77938;SDS011;67136;47.546;21.630;2023-09-12T00:14:33;8.40;;;4.90;;
77938;SDS011;67136;47.546;21.630;2023-09-12T00:17:36;13.47;;;5.20;;
77938;SDS011;67136;47.546;21.630;2023-09-12T00:20:38;8.43;;;4.85;;
77938;SDS011;67136;47.546;21.630;2023-09-12T00:23:41;13.62;;;5.15;;
77938;SDS011;67136;47.546;21.630;2023-09-12T00:26:44;9.80;;;4.90;;
77938;SDS011;67136;47.546;21.630;2023-09-12T00:29:47;10.10;;;5.40;;
77938;SDS011;67136;47.546;21.630;2023-09-12T00:32:49;9.87;;;4.83;;
77938;SDS011;67136;47.546;21.630;2023-09-12T00:35:52;12.35;;;4.85;;
77938;SDS011;67136;47.546;21.630;2023-09-12T00:38:55;8.98;;;4.93;;
77938;SDS011;67136;47.546;21.630;2023-09-12T00:41:57;14.60;;;5.28;;
77938;SDS011;67136;47.546;21.630;2023-09-12T00:45:00;9.65;;;4.95;;
77938;SDS011;67136;47.546;21.630;2023-09-12T00:48:03;11.40;;;4.47;;
77938;SDS011;67136;47.546;21.630;2023-09-12T00:51:07;9.63;;;5.20;;
77938;SDS011;67136;47.546;21.630;2023-09-12T00:54:10;13.07;;;5.15;;
77938;SDS011;67136;47.546;21.630;2023-09-12T00:57:14;10.77;;;5.05;;
77938;SDS011;67136;47.546;21.630;2023-09-12T01:00:17;13.65;;;4.82;;
77938;SDS011;67136;47.546;21.630;2023-09-12T01:03:20;13.77;;;5.20;;
77938;SDS011;67136;47.546;21.630;2023-09-12T01:06:23;12.93;;;5.22;;
77938;SDS011;67136;47.546;21.630;2023-09-12T01:09:31;12.15;;;4.78;;
77938;SDS011;67136;47.546;21.630;2023-09-12T01:12:34;9.43;;;5.28;;
77938;SDS011;67136;47.546;21.630;2023-09-12T01:15:38;7.20;;;4.55;;
77938;SDS011;67136;47.546;21.630;2023-09-12T01:18:40;9.63;;;4.87;;
77938;SDS011;67136;47.546;21.630;2023-09-12T01:25:08;14.82;;;5.00;;
77938;SDS011;67136;47.546;21.630;2023-09-12T01:28:35;12.98;;;5.15;;
77938;SDS011;67136;47.546;21.630;2023-09-12T01:31:45;11.65;;;5.25;;
77938;SDS011;67136;47.546;21.630;2023-09-12T01:34:49;10.80;;;5.80;;
77938;SDS011;67136;47.546;21.630;2023-09-12T01:37:52;10.82;;;5.10;;
77938;SDS011;67136;47.546;21.630;2023-09-12T01:40:55;13.55;;;5.20;;
77938;SDS011;67136;47.546;21.630;2023-09-12T01:43:59;14.65;;;5.12;;
77938;SDS011;67136;47.546;21.630;2023-09-12T01:47:04;9.40;;;4.82;;
77938;SDS011;67136;47.546;21.630;2023-09-12T01:50:09;10.23;;;5.13;;
77938;SDS011;67136;47.546;21.630;2023-09-12T01:53:15;9.25;;;4.30;;
77938;SDS011;67136;47.546;21.630;2023-09-12T01:56:18;12.73;;;5.00;;
77938;SDS011;67136;47.546;21.630;2023-09-12T01:59:22;11.07;;;5.10;;
77938;SDS011;67136;47.546;21.630;2023-09-12T02:02:25;11.50;;;4.70;;
77938;SDS011;67136;47.546;21.630;2023-09-12T02:05:27;12.23;;;5.63;;
77938;SDS011;67136;47.546;21.630;2023-09-12T02:08:30;8.50;;;5.15;;
77938;SDS011;67136;47.546;21.630;2023-09-12T02:11:32;9.55;;;4.80;;
77938;SDS011;67136;47.546;21.630;2023-09-12T02:14:35;14.45;;;4.85;;
77938;SDS011;67136;47.546;21.630;2023-09-12T02:17:38;12.07;;;4.97;;
77938;SDS011;67136;47.546;21.630;2023-09-12T02:20:41;11.87;;;4.60;;
77938;SDS011;67136;47.546;21.630;2023-09-12T02:23:47;12.65;;;4.87;;
77938;SDS011;67136;47.546;21.630;2023-09-12T02:26:50;15.20;;;5.03;;
77938;SDS011;67136;47.546;21.630;2023-09-12T02:29:53;13.40;;;4.78;;
77938;SDS011;67136;47.546;21.630;2023-09-12T02:32:55;8.70;;;4.80;;
77938;SDS011;67136;47.546;21.630;2023-09-12T02:35:58;11.73;;;4.70;;
77938;SDS011;67136;47.546;21.630;2023-09-12T02:39:01;12.70;;;4.50;;
77938;SDS011;67136;47.546;21.630;2023-09-12T02:42:03;6.72;;;4.68;;
77938;SDS011;67136;47.546;21.630;2023-09-12T02:45:06;13.18;;;4.80;;
77938;SDS011;67136;47.546;21.630;2023-09-12T02:48:09;12.88;;;5.15;;
77938;SDS011;67136;47.546;21.630;2023-09-12T02:51:12;7.40;;;4.20;;
77938;SDS011;67136;47.546;21.630;2023-09-12T02:54:15;13.25;;;5.00;;
77938;SDS011;67136;47.546;21.630;2023-09-12T02:57:18;12.80;;;5.00;;
77938;SDS011;67136;47.546;21.630;2023-09-12T03:00:21;8.90;;;4.50;;
77938;SDS011;67136;47.546;21.630;2023-09-12T03:03:24;9.63;;;4.68;;
77938;SDS011;67136;47.546;21.630;2023-09-12T03:06:28;11.30;;;4.97;;
77938;SDS011;67136;47.546;21.630;2023-09-12T03:09:31;11.57;;;5.05;;
77938;SDS011;67136;47.546;21.630;2023-09-12T03:12:37;11.50;;;5.12;;
77938;SDS011;67136;47.546;21.630;2023-09-12T03:15:40;10.80;;;5.00;;
77938;SDS011;67136;47.546;21.630;2023-09-12T03:18:42;11.27;;;4.20;;
77938;SDS011;67136;47.546;21.630;2023-09-12T03:21:45;11.40;;;4.77;;
77938;SDS011;67136;47.546;21.630;2023-09-12T03:24:48;8.73;;;4.45;;
77938;SDS011;67136;47.546;21.630;2023-09-12T03:27:51;8.65;;;4.15;;
77938;SDS011;67136;47.546;21.630;2023-09-12T03:31:02;12.85;;;4.70;;
77938;SDS011;67136;47.546;21.630;2023-09-12T03:34:07;8.93;;;4.85;;
77938;SDS011;67136;47.546;21.630;2023-09-12T03:37:09;9.77;;;4.83;;
77938;SDS011;67136;47.546;21.630;2023-09-12T03:40:12;11.60;;;4.53;;
77938;SDS011;67136;47.546;21.630;2023-09-12T03:43:15;8.43;;;4.72;;
77938;SDS011;67136;47.546;21.630;2023-09-12T03:46:17;16.87;;;4.45;;
77938;SDS011;67136;47.546;21.630;2023-09-12T03:49:20;9.20;;;4.87;;
77938;SDS011;67136;47.546;21.630;2023-09-12T03:52:23;9.20;;;4.17;;
77938;SDS011;67136;47.546;21.630;2023-09-12T03:55:25;13.35;;;4.87;;
77938;SDS011;67136;47.546;21.630;2023-09-12T03:58:28;9.75;;;4.60;;
77938;SDS011;67136;47.546;21.630;2023-09-12T04:01:31;12.48;;;4.68;;
77938;SDS011;67136;47.546;21.630;2023-09-12T04:04:34;10.70;;;4.90;;
77938;SDS011;67136;47.546;21.630;2023-09-12T04:07:37;8.10;;;4.40;;
77938;SDS011;67136;47.546;21.630;2023-09-12T04:10:39;8.20;;;4.07;;
77938;SDS011;67136;47.546;21.630;2023-09-12T04:13:42;12.75;;;4.57;;
77938;SDS011;67136;47.546;21.630;2023-09-12T04:16:46;8.25;;;4.72;;
77938;SDS011;67136;47.546;21.630;2023-09-12T04:19:49;7.87;;;4.15;;
77938;SDS011;67136;47.546;21.630;2023-09-12T04:22:51;10.13;;;4.67;;
77938;SDS011;67136;47.546;21.630;2023-09-12T04:25:54;12.68;;;4.70;;
77938;SDS011;67136;47.546;21.630;2023-09-12T04:28:57;12.48;;;4.18;;
77938;SDS011;67136;47.546;21.630;2023-09-12T04:31:59;8.75;;;4.40;;
77938;SDS011;67136;47.546;21.630;2023-09-12T04:35:02;7.55;;;4.25;;
77938;SDS011;67136;47.546;21.630;2023-09-12T04:38:05;10.13;;;4.10;;
77938;SDS011;67136;47.546;21.630;2023-09-12T04:41:08;8.07;;;4.15;;
77938;SDS011;67136;47.546;21.630;2023-09-12T04:44:12;8.10;;;3.40;;
77938;SDS011;67136;47.546;21.630;2023-09-12T04:47:14;7.57;;;4.07;;
77938;SDS011;67136;47.546;21.630;2023-09-12T04:50:17;6.97;;;3.97;;
77938;SDS011;67136;47.546;21.630;2023-09-12T04:53:21;7.60;;;3.37;;
77938;SDS011;67136;47.546;21.630;2023-09-12T04:56:23;13.93;;;4.43;;
77938;SDS011;67136;47.546;21.630;2023-09-12T04:59:29;9.50;;;4.60;;
77938;SDS011;67136;47.546;21.630;2023-09-12T05:02:31;8.10;;;4.87;;
77938;SDS011;67136;47.546;21.630;2023-09-12T05:05:34;12.48;;;4.32;;
77938;SDS011;67136;47.546;21.630;2023-09-12T05:08:39;13.83;;;4.27;;
77938;SDS011;67136;47.546;21.630;2023-09-12T05:11:42;9.90;;;4.30;;
77938;SDS011;67136;47.546;21.630;2023-09-12T05:14:45;13.52;;;4.20;;
77938;SDS011;67136;47.546;21.630;2023-09-12T05:17:48;8.18;;;4.15;;
77938;SDS011;67136;47.546;21.630;2023-09-12T05:20:50;17.20;;;4.68;;
77938;SDS011;67136;47.546;21.630;2023-09-12T05:23:53;11.17;;;4.13;;
77938;SDS011;67136;47.546;21.630;2023-09-12T05:26:55;15.23;;;4.60;;
77938;SDS011;67136;47.546;21.630;2023-09-12T05:29:58;11.45;;;4.80;;
77938;SDS011;67136;47.546;21.630;2023-09-12T05:33:01;12.45;;;4.85;;
77938;SDS011;67136;47.546;21.630;2023-09-12T05:36:04;8.82;;;4.65;;
77938;SDS011;67136;47.546;21.630;2023-09-12T05:39:07;16.70;;;4.07;;
77938;SDS011;67136;47.546;21.630;2023-09-12T05:42:10;11.63;;;4.57;;
77938;SDS011;67136;47.546;21.630;2023-09-12T05:45:13;9.73;;;3.87;;
77938;SDS011;67136;47.546;21.630;2023-09-12T05:48:16;8.57;;;4.32;;
77938;SDS011;67136;47.546;21.630;2023-09-12T05:51:19;9.13;;;3.85;;
77938;SDS011;67136;47.546;21.630;2023-09-12T05:54:22;12.07;;;4.87;;
77938;SDS011;67136;47.546;21.630;2023-09-12T05:57:25;10.98;;;5.00;;
77938;SDS011;67136;47.546;21.630;2023-09-12T06:00:27;10.05;;;4.47;;
77938;SDS011;67136;47.546;21.630;2023-09-12T06:03:30;12.98;;;4.70;;
77938;SDS011;67136;47.546;21.630;2023-09-12T06:06:33;17.65;;;4.80;;
77938;SDS011;67136;47.546;21.630;2023-09-12T06:09:36;11.40;;;4.57;;
77938;SDS011;67136;47.546;21.630;2023-09-12T06:12:38;9.38;;;4.37;;
77938;SDS011;67136;47.546;21.630;2023-09-12T06:15:41;13.25;;;4.57;;
77938;SDS011;67136;47.546;21.630;2023-09-12T06:18:44;10.25;;;4.45;;
77938;SDS011;67136;47.546;21.630;2023-09-12T06:21:47;16.02;;;5.10;;
77938;SDS011;67136;47.546;21.630;2023-09-12T06:24:50;11.03;;;4.70;;
77938;SDS011;67136;47.546;21.630;2023-09-12T06:27:53;10.32;;;4.87;;
77938;SDS011;67136;47.546;21.630;2023-09-12T06:30:55;13.30;;;4.82;;
77938;SDS011;67136;47.546;21.630;2023-09-12T06:34:02;19.87;;;4.72;;
77938;SDS011;67136;47.546;21.630;2023-09-12T06:37:04;9.48;;;5.55;;
77938;SDS011;67136;47.546;21.630;2023-09-12T06:40:07;10.97;;;5.53;;
77938;SDS011;67136;47.546;21.630;2023-09-12T06:43:10;10.50;;;4.53;;
77938;SDS011;67136;47.546;21.630;2023-09-12T06:46:13;11.60;;;5.18;;
77938;SDS011;67136;47.546;21.630;2023-09-12T06:49:16;9.30;;;5.03;;
77938;SDS011;67136;47.546;21.630;2023-09-12T06:52:19;10.38;;;4.80;;
77938;SDS011;67136;47.546;21.630;2023-09-12T06:55:22;17.97;;;4.57;;
77938;SDS011;67136;47.546;21.630;2023-09-12T06:58:25;14.50;;;4.40;;
77938;SDS011;67136;47.546;21.630;2023-09-12T07:01:28;15.05;;;5.07;;
77938;SDS011;67136;47.546;21.630;2023-09-12T07:04:31;7.25;;;4.15;;
77938;SDS011;67136;47.546;21.630;2023-09-12T07:07:33;8.70;;;4.07;;
77938;SDS011;67136;47.546;21.630;2023-09-12T07:10:36;9.13;;;4.30;;
77938;SDS011;67136;47.546;21.630;2023-09-12T07:13:39;18.92;;;4.72;;
77938;SDS011;67136;47.546;21.630;2023-09-12T07:16:44;12.35;;;4.57;;
77938;SDS011;67136;47.546;21.630;2023-09-12T07:19:46;14.57;;;4.87;;
77938;SDS011;67136;47.546;21.630;2023-09-12T07:22:49;10.50;;;4.35;;
77938;SDS011;67136;47.546;21.630;2023-09-12T07:25:53;11.40;;;4.37;;
77938;SDS011;67136;47.546;21.630;2023-09-12T07:28:59;9.93;;;4.47;;
77938;SDS011;67136;47.546;21.630;2023-09-12T07:32:04;13.32;;;4.90;;
77938;SDS011;67136;47.546;21.630;2023-09-12T07:35:07;13.95;;;4.12;;
77938;SDS011;67136;47.546;21.630;2023-09-12T07:38:10;11.02;;;4.32;;
77938;SDS011;67136;47.546;21.630;2023-09-12T07:41:12;15.70;;;3.93;;
77938;SDS011;67136;47.546;21.630;2023-09-12T07:44:15;12.15;;;4.40;;
77938;SDS011;67136;47.546;21.630;2023-09-12T07:47:18;12.93;;;4.40;;
77938;SDS011;67136;47.546;21.630;2023-09-12T07:50:21;14.25;;;4.50;;
77938;SDS011;67136;47.546;21.630;2023-09-12T07:53:24;13.88;;;4.45;;
77938;SDS011;67136;47.546;21.630;2023-09-12T07:56:27;28.10;;;5.50;;
77938;SDS011;67136;47.546;21.630;2023-09-12T07:59:29;7.72;;;3.80;;
77938;SDS011;67136;47.546;21.630;2023-09-12T08:02:32;9.80;;;4.45;;
77938;SDS011;67136;47.546;21.630;2023-09-12T08:05:35;7.10;;;4.20;;
77938;SDS011;67136;47.546;21.630;2023-09-12T08:08:38;12.93;;;4.20;;
77938;SDS011;67136;47.546;21.630;2023-09-12T08:11:41;9.30;;;4.93;;
77938;SDS011;67136;47.546;21.630;2023-09-12T08:14:43;7.53;;;4.72;;
77938;SDS011;67136;47.546;21.630;2023-09-12T08:17:47;9.40;;;4.70;;
77938;SDS011;67136;47.546;21.630;2023-09-12T08:20:54;7.75;;;3.60;;
77938;SDS011;67136;47.546;21.630;2023-09-12T08:23:57;12.90;;;4.28;;
77938;SDS011;67136;47.546;21.630;2023-09-12T08:26:59;7.37;;;3.83;;
77938;SDS011;67136;47.546;21.630;2023-09-12T08:30:02;8.32;;;3.67;;
77938;SDS011;67136;47.546;21.630;2023-09-12T08:33:06;10.10;;;4.22;;
77938;SDS011;67136;47.546;21.630;2023-09-12T08:36:09;8.35;;;4.07;;
77938;SDS011;67136;47.546;21.630;2023-09-12T08:39:13;10.15;;;4.07;;
77938;SDS011;67136;47.546;21.630;2023-09-12T08:42:18;11.07;;;3.80;;
77938;SDS011;67136;47.546;21.630;2023-09-12T08:45:21;7.18;;;3.75;;
77938;SDS011;67136;47.546;21.630;2023-09-12T08:48:24;12.77;;;4.00;;
77938;SDS011;67136;47.546;21.630;2023-09-12T08:51:28;7.45;;;3.92;;
77938;SDS011;67136;47.546;21.630;2023-09-12T08:54:31;11.52;;;4.00;;
77938;SDS011;67136;47.546;21.630;2023-09-12T08:57:40;9.57;;;4.13;;
77938;SDS011;67136;47.546;21.630;2023-09-12T09:00:44;8.13;;;3.92;;
77938;SDS011;67136;47.546;21.630;2023-09-12T09:03:47;10.93;;;4.10;;
77938;SDS011;67136;47.546;21.630;2023-09-12T09:06:50;11.60;;;4.00;;
77938;SDS011;67136;47.546;21.630;2023-09-12T09:09:53;8.77;;;3.90;;
77938;SDS011;67136;47.546;21.630;2023-09-12T09:12:56;10.00;;;4.10;;
77938;SDS011;67136;47.546;21.630;2023-09-12T09:16:11;10.18;;;3.60;;
77938;SDS011;67136;47.546;21.630;2023-09-12T09:19:16;13.50;;;3.75;;
77938;SDS011;67136;47.546;21.630;2023-09-12T09:22:20;9.90;;;3.80;;
77938;SDS011;67136;47.546;21.630;2023-09-12T09:25:25;7.80;;;3.50;;
77938;SDS011;67136;47.546;21.630;2023-09-12T09:28:28;15.33;;;3.77;;
77938;SDS011;67136;47.546;21.630;2023-09-12T09:31:30;11.43;;;3.78;;
77938;SDS011;67136;47.546;21.630;2023-09-12T09:34:34;9.18;;;3.90;;
77938;SDS011;67136;47.546;21.630;2023-09-12T09:37:41;11.60;;;4.03;;
77938;SDS011;67136;47.546;21.630;2023-09-12T09:40:44;12.70;;;3.90;;
77938;SDS011;67136;47.546;21.630;2023-09-12T09:43:51;10.23;;;3.40;;
77938;SDS011;67136;47.546;21.630;2023-09-12T09:46:55;8.23;;;3.47;;
77938;SDS011;67136;47.546;21.630;2023-09-12T09:50:03;12.40;;;4.10;;
77938;SDS011;67136;47.546;21.630;2023-09-12T09:53:05;7.50;;;3.80;;
77938;SDS011;67136;47.546;21.630;2023-09-12T09:56:11;13.13;;;3.42;;
77938;SDS011;67136;47.546;21.630;2023-09-12T09:59:18;10.13;;;3.17;;
77938;SDS011;67136;47.546;21.630;2023-09-12T10:02:24;8.75;;;3.12;;
77938;SDS011;67136;47.546;21.630;2023-09-12T10:05:28;7.47;;;3.87;;
77938;SDS011;67136;47.546;21.630;2023-09-12T10:08:33;8.55;;;3.47;;
77938;SDS011;67136;47.546;21.630;2023-09-12T10:11:38;11.43;;;3.60;;
77938;SDS011;67136;47.546;21.630;2023-09-12T10:14:41;8.33;;;3.67;;
77938;SDS011;67136;47.546;21.630;2023-09-12T10:17:47;8.55;;;3.72;;
77938;SDS011;67136;47.546;21.630;2023-09-12T10:20:58;12.18;;;3.65;;
77938;SDS011;67136;47.546;21.630;2023-09-12T10:24:07;11.10;;;3.35;;
77938;SDS011;67136;47.546;21.630;2023-09-12T10:27:11;10.15;;;3.80;;
77938;SDS011;67136;47.546;21.630;2023-09-12T10:30:15;10.23;;;3.73;;
77938;SDS011;67136;47.546;21.630;2023-09-12T10:33:20;8.30;;;3.55;;
77938;SDS011;67136;47.546;21.630;2023-09-12T10:36:23;13.10;;;3.58;;
77938;SDS011;67136;47.546;21.630;2023-09-12T10:39:29;6.78;;;3.20;;
77938;SDS011;67136;47.546;21.630;2023-09-12T10:42:33;10.75;;;3.22;;
77938;SDS011;67136;47.546;21.630;2023-09-12T10:45:37;8.33;;;3.30;;
77938;SDS011;67136;47.546;21.630;2023-09-12T10:48:41;6.30;;;3.35;;
77938;SDS011;67136;47.546;21.630;2023-09-12T10:51:44;8.82;;;3.65;;
77938;SDS011;67136;47.546;21.630;2023-09-12T10:54:48;11.85;;;3.80;;
77938;SDS011;67136;47.546;21.630;2023-09-12T10:58:04;20.73;;;3.78;;
77938;SDS011;67136;47.546;21.630;2023-09-12T11:01:26;7.83;;;3.57;;
77938;SDS011;67136;47.546;21.630;2023-09-12T11:04:30;8.52;;;3.20;;
77938;SDS011;67136;47.546;21.630;2023-09-12T11:10:38;10.13;;;3.53;;
77938;SDS011;67136;47.546;21.630;2023-09-12T11:13:43;9.50;;;3.35;;
77938;SDS011;67136;47.546;21.630;2023-09-12T11:20:21;12.00;;;3.92;;
77938;SDS011;67136;47.546;21.630;2023-09-12T11:23:25;12.13;;;3.80;;
77938;SDS011;67136;47.546;21.630;2023-09-12T11:26:28;16.23;;;4.22;;
77938;SDS011;67136;47.546;21.630;2023-09-12T11:29:35;18.20;;;3.90;;
77938;SDS011;67136;47.546;21.630;2023-09-12T11:32:39;13.90;;;3.57;;
77938;SDS011;67136;47.546;21.630;2023-09-12T11:35:42;5.80;;;3.37;;
77938;SDS011;67136;47.546;21.630;2023-09-12T11:38:49;6.62;;;3.58;;
77938;SDS011;67136;47.546;21.630;2023-09-12T11:41:52;7.50;;;3.62;;
77938;SDS011;67136;47.546;21.630;2023-09-12T11:44:56;10.07;;;3.53;;
77938;SDS011;67136;47.546;21.630;2023-09-12T11:48:00;10.60;;;3.33;;
77938;SDS011;67136;47.546;21.630;2023-09-12T11:51:06;12.77;;;3.30;;
77938;SDS011;67136;47.546;21.630;2023-09-12T11:54:09;9.82;;;3.55;;
77938;SDS011;67136;47.546;21.630;2023-09-12T11:57:12;12.60;;;3.50;;
77938;SDS011;67136;47.546;21.630;2023-09-12T12:00:16;12.73;;;3.65;;
77938;SDS011;67136;47.546;21.630;2023-09-12T12:03:22;9.43;;;3.53;;
77938;SDS011;67136;47.546;21.630;2023-09-12T12:06:26;9.15;;;3.65;;
77938;SDS011;67136;47.546;21.630;2023-09-12T12:09:29;8.75;;;3.25;;
77938;SDS011;67136;47.546;21.630;2023-09-12T12:12:32;9.98;;;3.80;;
77938;SDS011;67136;47.546;21.630;2023-09-12T12:15:35;13.85;;;3.40;;
77938;SDS011;67136;47.546;21.630;2023-09-12T12:18:38;11.13;;;3.50;;
77938;SDS011;67136;47.546;21.630;2023-09-12T12:21:42;9.25;;;3.83;;
77938;SDS011;67136;47.546;21.630;2023-09-12T12:24:46;8.77;;;3.28;;
77938;SDS011;67136;47.546;21.630;2023-09-12T12:27:50;8.25;;;3.85;;
77938;SDS011;67136;47.546;21.630;2023-09-12T12:30:52;7.18;;;3.37;;
77938;SDS011;67136;47.546;21.630;2023-09-12T12:33:57;10.03;;;3.80;;
77938;SDS011;67136;47.546;21.630;2023-09-12T12:37:27;5.65;;;3.15;;
77938;SDS011;67136;47.546;21.630;2023-09-12T12:40:38;7.90;;;3.47;;
77938;SDS011;67136;47.546;21.630;2023-09-12T12:43:50;8.60;;;3.47;;
77938;SDS011;67136;47.546;21.630;2023-09-12T12:47:04;13.02;;;3.53;;
77938;SDS011;67136;47.546;21.630;2023-09-12T12:50:16;8.37;;;3.47;;
77938;SDS011;67136;47.546;21.630;2023-09-12T12:56:44;9.30;;;4.00;;
77938;SDS011;67136;47.546;21.630;2023-09-12T12:59:48;10.05;;;3.62;;
77938;SDS011;67136;47.546;21.630;2023-09-12T13:02:50;12.00;;;3.92;;
77938;SDS011;67136;47.546;21.630;2023-09-12T13:05:53;14.67;;;3.77;;
77938;SDS011;67136;47.546;21.630;2023-09-12T13:08:55;12.10;;;3.80;;
77938;SDS011;67136;47.546;21.630;2023-09-12T13:11:59;11.50;;;4.10;;
77938;SDS011;67136;47.546;21.630;2023-09-12T13:15:03;12.37;;;4.12;;
77938;SDS011;67136;47.546;21.630;2023-09-12T13:18:07;7.43;;;3.62;;
77938;SDS011;67136;47.546;21.630;2023-09-12T13:21:09;8.97;;;3.50;;
77938;SDS011;67136;47.546;21.630;2023-09-12T13:24:12;9.75;;;3.75;;
77938;SDS011;67136;47.546;21.630;2023-09-12T13:27:15;9.00;;;3.83;;
77938;SDS011;67136;47.546;21.630;2023-09-12T13:30:18;10.25;;;3.92;;
77938;SDS011;67136;47.546;21.630;2023-09-12T13:33:20;8.88;;;3.62;;
77938;SDS011;67136;47.546;21.630;2023-09-12T13:36:23;13.50;;;3.90;;
77938;SDS011;67136;47.546;21.630;2023-09-12T13:39:26;9.02;;;3.47;;
77938;SDS011;67136;47.546;21.630;2023-09-12T13:42:29;9.43;;;3.50;;
77938;SDS011;67136;47.546;21.630;2023-09-12T13:45:33;11.50;;;3.60;;
77938;SDS011;67136;47.546;21.630;2023-09-12T13:48:37;10.43;;;3.72;;
77938;SDS011;67136;47.546;21.630;2023-09-12T13:51:40;11.10;;;3.90;;
77938;SDS011;67136;47.546;21.630;2023-09-12T13:54:42;11.75;;;3.50;;
77938;SDS011;67136;47.546;21.630;2023-09-12T13:57:45;9.55;;;3.65;;
77938;SDS011;67136;47.546;21.630;2023-09-12T14:00:55;12.75;;;4.00;;
77938;SDS011;67136;47.546;21.630;2023-09-12T14:03:58;15.80;;;4.18;;
77938;SDS011;67136;47.546;21.630;2023-09-12T14:07:01;9.43;;;3.60;;
77938;SDS011;67136;47.546;21.630;2023-09-12T14:10:06;18.17;;;3.92;;
77938;SDS011;67136;47.546;21.630;2023-09-12T14:13:10;15.02;;;3.65;;
77938;SDS011;67136;47.546;21.630;2023-09-12T14:16:22;11.68;;;3.60;;
77938;SDS011;67136;47.546;21.630;2023-09-12T14:19:25;12.27;;;3.85;;
77938;SDS011;67136;47.546;21.630;2023-09-12T14:22:29;6.30;;;3.10;;
77938;SDS011;67136;47.546;21.630;2023-09-12T14:25:33;14.43;;;3.60;;
77938;SDS011;67136;47.546;21.630;2023-09-12T14:28:37;9.77;;;3.47;;
77938;SDS011;67136;47.546;21.630;2023-09-12T14:31:43;13.23;;;3.60;;
77938;SDS011;67136;47.546;21.630;2023-09-12T14:34:53;10.27;;;3.40;;
77938;SDS011;67136;47.546;21.630;2023-09-12T14:37:55;14.83;;;3.40;;
77938;SDS011;67136;47.546;21.630;2023-09-12T14:40:58;7.43;;;3.47;;
77938;SDS011;67136;47.546;21.630;2023-09-12T14:44:00;14.13;;;3.42;;
77938;SDS011;67136;47.546;21.630;2023-09-12T14:47:03;9.50;;;3.55;;
77938;SDS011;67136;47.546;21.630;2023-09-12T14:50:06;7.68;;;3.20;;
77938;SDS011;67136;47.546;21.630;2023-09-12T14:53:10;13.87;;;3.67;;
77938;SDS011;67136;47.546;21.630;2023-09-12T14:56:15;6.00;;;3.33;;
77938;SDS011;67136;47.546;21.630;2023-09-12T14:59:18;12.35;;;3.33;;
77938;SDS011;67136;47.546;21.630;2023-09-12T15:02:20;13.38;;;3.30;;
77938;SDS011;67136;47.546;21.630;2023-09-12T15:05:23;11.73;;;4.35;;
77938;SDS011;67136;47.546;21.630;2023-09-12T15:08:26;7.97;;;3.23;;
77938;SDS011;67136;47.546;21.630;2023-09-12T15:11:29;11.30;;;3.50;;
77938;SDS011;67136;47.546;21.630;2023-09-12T15:14:33;9.48;;;3.22;;
77938;SDS011;67136;47.546;21.630;2023-09-12T15:17:37;8.73;;;3.42;;
77938;SDS011;67136;47.546;21.630;2023-09-12T15:20:40;9.02;;;3.28;;
77938;SDS011;67136;47.546;21.630;2023-09-12T15:23:43;12.70;;;3.50;;
77938;SDS011;67136;47.546;21.630;2023-09-12T15:26:46;6.68;;;3.40;;
77938;SDS011;67136;47.546;21.630;2023-09-12T15:29:49;11.95;;;3.50;;
77938;SDS011;67136;47.546;21.630;2023-09-12T15:32:51;4.32;;;2.92;;
77938;SDS011;67136;47.546;21.630;2023-09-12T15:35:54;9.68;;;3.10;;
77938;SDS011;67136;47.546;21.630;2023-09-12T15:38:56;14.73;;;3.50;;
77938;SDS011;67136;47.546;21.630;2023-09-12T15:42:00;17.42;;;3.55;;
77938;SDS011;67136;47.546;21.630;2023-09-12T15:45:03;18.73;;;4.00;;
77938;SDS011;67136;47.546;21.630;2023-09-12T15:48:07;17.50;;;3.80;;
77938;SDS011;67136;47.546;21.630;2023-09-12T15:51:09;10.73;;;3.22;;
77938;SDS011;67136;47.546;21.630;2023-09-12T15:54:12;9.80;;;3.10;;
77938;SDS011;67136;47.546;21.630;2023-09-12T15:57:14;7.70;;;3.40;;
77938;SDS011;67136;47.546;21.630;2023-09-12T16:00:17;7.18;;;3.60;;
77938;SDS011;67136;47.546;21.630;2023-09-12T16:03:20;14.10;;;3.58;;
77938;SDS011;67136;47.546;21.630;2023-09-12T16:06:22;12.43;;;3.67;;
77938;SDS011;67136;47.546;21.630;2023-09-12T16:09:25;14.87;;;3.93;;
77938;SDS011;67136;47.546;21.630;2023-09-12T16:12:28;9.13;;;3.47;;
77938;SDS011;67136;47.546;21.630;2023-09-12T16:15:32;10.05;;;3.90;;
77938;SDS011;67136;47.546;21.630;2023-09-12T16:18:36;10.02;;;3.87;;
77938;SDS011;67136;47.546;21.630;2023-09-12T16:21:40;9.82;;;4.10;;
77938;SDS011;67136;47.546;21.630;2023-09-12T16:24:42;13.03;;;4.13;;
77938;SDS011;67136;47.546;21.630;2023-09-12T16:27:45;8.88;;;3.78;;
77938;SDS011;67136;47.546;21.630;2023-09-12T16:30:48;11.43;;;3.80;;
77938;SDS011;67136;47.546;21.630;2023-09-12T16:33:51;11.30;;;4.10;;
77938;SDS011;67136;47.546;21.630;2023-09-12T16:36:53;9.27;;;3.90;;
77938;SDS011;67136;47.546;21.630;2023-09-12T16:39:56;5.97;;;3.77;;
77938;SDS011;67136;47.546;21.630;2023-09-12T16:42:59;10.20;;;3.72;;
77938;SDS011;67136;47.546;21.630;2023-09-12T16:46:02;13.20;;;3.87;;
77938;SDS011;67136;47.546;21.630;2023-09-12T16:49:05;7.25;;;3.42;;
77938;SDS011;67136;47.546;21.630;2023-09-12T16:52:08;11.20;;;4.22;;
77938;SDS011;67136;47.546;21.630;2023-09-12T16:55:12;12.40;;;3.80;;
77938;SDS011;67136;47.546;21.630;2023-09-12T16:58:15;13.43;;;3.72;;
77938;SDS011;67136;47.546;21.630;2023-09-12T17:01:18;11.75;;;3.90;;
77938;SDS011;67136;47.546;21.630;2023-09-12T17:04:20;11.43;;;3.97;;
77938;SDS011;67136;47.546;21.630;2023-09-12T17:07:23;18.87;;;4.60;;
77938;SDS011;67136;47.546;21.630;2023-09-12T17:10:26;11.70;;;4.40;;
77938;SDS011;67136;47.546;21.630;2023-09-12T17:13:28;21.90;;;4.62;;
77938;SDS011;67136;47.546;21.630;2023-09-12T17:16:31;15.02;;;4.18;;
77938;SDS011;67136;47.546;21.630;2023-09-12T17:19:34;18.73;;;4.32;;
77938;SDS011;67136;47.546;21.630;2023-09-12T17:22:37;11.05;;;4.30;;
77938;SDS011;67136;47.546;21.630;2023-09-12T17:25:39;15.13;;;3.90;;
77938;SDS011;67136;47.546;21.630;2023-09-12T17:28:42;16.15;;;4.30;;
77938;SDS011;67136;47.546;21.630;2023-09-12T17:31:44;12.37;;;4.00;;
77938;SDS011;67136;47.546;21.630;2023-09-12T17:34:47;13.70;;;4.35;;
77938;SDS011;67136;47.546;21.630;2023-09-12T17:37:51;16.25;;;4.68;;
77938;SDS011;67136;47.546;21.630;2023-09-12T17:40:54;15.07;;;4.10;;
77938;SDS011;67136;47.546;21.630;2023-09-12T17:43:56;16.90;;;4.70;;
77938;SDS011;67136;47.546;21.630;2023-09-12T17:46:59;16.40;;;6.05;;
77938;SDS011;67136;47.546;21.630;2023-09-12T17:50:02;12.77;;;4.37;;
77938;SDS011;67136;47.546;21.630;2023-09-12T17:53:08;14.30;;;4.87;;
77938;SDS011;67136;47.546;21.630;2023-09-12T17:56:11;11.27;;;5.30;;
77938;SDS011;67136;47.546;21.630;2023-09-12T17:59:14;15.20;;;4.87;;
77938;SDS011;67136;47.546;21.630;2023-09-12T18:02:16;13.38;;;5.20;;
77938;SDS011;67136;47.546;21.630;2023-09-12T18:05:19;15.18;;;5.25;;
77938;SDS011;67136;47.546;21.630;2023-09-12T18:08:21;15.30;;;5.60;;
77938;SDS011;67136;47.546;21.630;2023-09-12T18:11:25;13.40;;;5.10;;
77938;SDS011;67136;47.546;21.630;2023-09-12T18:14:27;17.40;;;5.78;;